createdAt,value
2023-04-29T00:01:26.186Z,97908.75
2023-04-29T00:03:54.194Z,97918.00
2023-04-29T00:06:21.787Z,97910.97
2023-04-29T00:08:49.003Z,97920.53
2023-04-29T00:11:16.296Z,97912.34
2023-04-29T00:13:43.389Z,97903.53
2023-04-29T00:16:11.060Z,97903.38
2023-04-29T00:18:38.141Z,97912.31
2023-04-29T00:21:08.164Z,97911.44
2023-04-29T00:23:35.470Z,97908.13
2023-04-29T00:26:02.708Z,97912.63
2023-04-29T00:28:29.996Z,97914.69
2023-04-29T00:30:57.294Z,97907.72
2023-04-29T00:33:24.333Z,97911.59
2023-04-29T00:35:51.457Z,97908.25
2023-04-29T00:38:18.764Z,97911.84
2023-04-29T00:40:46.055Z,97905.97
2023-04-29T00:43:13.595Z,97906.78
2023-04-29T00:45:40.726Z,97904.09
2023-04-29T00:48:08.378Z,97908.88
2023-04-29T00:50:36.891Z,97909.94
2023-04-29T00:53:04.446Z,97911.16
2023-04-29T00:55:33.526Z,97904.59
2023-04-29T00:58:02.816Z,97907.53
2023-04-29T01:00:30.695Z,97907.63
2023-04-29T01:02:59.985Z,97905.97
2023-04-29T01:05:27.899Z,97909.50
2023-04-29T01:07:57.808Z,97911.19
2023-04-29T01:10:32.260Z,97911.47
2023-04-29T01:13:14.134Z,97899.38
2023-04-29T01:16:01.286Z,97899.50
2023-04-29T01:18:30.490Z,97902.41
2023-04-29T01:20:59.208Z,97900.56
2023-04-29T01:23:30.295Z,97902.66
2023-04-29T01:25:58.449Z,97895.34
2023-04-29T01:29:05.516Z,97898.91
2023-04-29T01:31:49.399Z,97897.44
2023-04-29T01:34:40.666Z,97897.88
2023-04-29T01:37:23.093Z,97897.34
2023-04-29T01:40:10.329Z,97901.72
2023-04-29T01:43:18.201Z,97904.31
2023-04-29T01:45:47.965Z,97896.00
2023-04-29T01:48:18.088Z,97902.00
2023-04-29T01:50:45.259Z,97906.16
2023-04-29T01:53:14.124Z,97908.25
2023-04-29T01:55:41.427Z,97912.72
2023-04-29T01:58:20.411Z,97907.41
2023-04-29T02:00:50.312Z,97904.81
2023-04-29T02:03:18.975Z,97905.97
2023-04-29T02:05:50.718Z,97909.28
2023-04-29T02:08:18.344Z,97912.19
2023-04-29T02:10:57.184Z,97912.09
2023-04-29T02:13:44.332Z,97908.03
2023-04-29T02:16:15.376Z,97908.97
2023-04-29T02:18:58.573Z,97900.88
2023-04-29T02:21:25.807Z,97907.31
2023-04-29T02:23:54.582Z,97905.66
2023-04-29T02:26:24.163Z,97909.38
2023-04-29T02:28:52.702Z,97897.88
2023-04-29T02:31:21.528Z,97899.31
2023-04-29T02:33:49.226Z,97906.97
2023-04-29T02:36:16.269Z,97903.44
2023-04-29T02:38:43.992Z,97905.50
2023-04-29T02:41:11.007Z,97907.56
2023-04-29T02:43:37.944Z,97902.28
2023-04-29T02:46:05.543Z,97902.38
2023-04-29T02:48:32.637Z,97898.63
2023-04-29T02:50:59.706Z,97898.81
2023-04-29T02:53:27.014Z,97897.44
2023-04-29T02:55:53.973Z,97897.88
2023-04-29T02:58:20.908Z,97901.75
2023-04-29T03:00:47.962Z,97903.16
2023-04-29T03:03:15.085Z,97897.25
2023-04-29T03:05:42.233Z,97900.56
2023-04-29T03:08:10.453Z,97899.63
2023-04-29T03:10:39.270Z,97900.69
2023-04-29T03:13:08.182Z,97896.72
2023-04-29T03:15:36.990Z,97897.72
2023-04-29T03:18:05.098Z,97903.97
2023-04-29T03:20:34.161Z,97904.78
2023-04-29T03:23:03.410Z,97906.16
2023-04-29T03:25:31.435Z,97913.31
2023-04-29T03:27:58.825Z,97912.59
2023-04-29T03:30:26.050Z,97902.31
2023-04-29T03:32:56.720Z,97905.44
2023-04-29T03:35:24.243Z,97903.38
2023-04-29T03:38:11.820Z,97906.50
2023-04-29T03:40:40.176Z,97910.16
2023-04-29T03:43:09.327Z,97907.38
2023-04-29T03:45:36.895Z,97905.31
2023-04-29T03:48:06.145Z,97908.50
2023-04-29T03:50:33.158Z,97905.50
2023-04-29T03:53:00.331Z,97899.53
2023-04-29T03:55:27.534Z,97913.13
2023-04-29T03:57:54.675Z,97912.41
2023-04-29T04:00:22.388Z,97915.09
2023-04-29T04:02:54.705Z,97915.94
2023-04-29T04:05:25.370Z,97912.72
2023-04-29T04:08:01.170Z,97914.66
2023-04-29T04:10:33.878Z,97914.59
2023-04-29T04:13:04.212Z,97912.09
2023-04-29T04:15:32.253Z,97919.97
2023-04-29T04:17:59.929Z,97913.16
2023-04-29T04:20:27.187Z,97915.13
2023-04-29T04:22:55.031Z,97913.28
2023-04-29T04:25:29.436Z,97900.66
2023-04-29T04:28:05.430Z,97904.84
2023-04-29T04:30:50.138Z,97902.00
2023-04-29T04:33:17.339Z,97898.63
2023-04-29T04:35:46.531Z,97905.03
2023-04-29T04:38:13.791Z,97903.53
2023-04-29T04:40:44.670Z,97902.09
2023-04-29T04:43:27.048Z,97902.13
2023-04-29T04:45:54.270Z,97896.34
2023-04-29T04:48:21.395Z,97904.09
2023-04-29T04:50:51.043Z,97908.22
2023-04-29T04:53:18.056Z,97905.72
2023-04-29T04:55:52.630Z,97905.59
2023-04-29T04:58:19.799Z,97912.47
2023-04-29T05:00:47.188Z,97902.19
2023-04-29T05:03:14.381Z,97908.56
2023-04-29T05:05:41.583Z,97901.91
2023-04-29T05:08:08.772Z,97897.41
2023-04-29T05:10:41.289Z,97900.47
2023-04-29T05:13:08.497Z,97909.56
2023-04-29T05:15:36.886Z,97906.38
2023-04-29T05:18:05.553Z,97913.00
2023-04-29T05:20:33.010Z,97912.63
2023-04-29T05:23:02.861Z,97911.41
2023-04-29T05:25:33.836Z,97915.28
2023-04-29T05:28:03.472Z,97924.75
2023-04-29T05:30:32.944Z,97926.84
2023-04-29T05:33:00.308Z,97927.13
2023-04-29T05:35:28.015Z,97927.28
2023-04-29T05:37:55.296Z,97910.47
2023-04-29T05:40:44.729Z,97920.72
2023-04-29T05:43:42.928Z,97914.00
2023-04-29T05:46:10.242Z,97917.44
2023-04-29T05:48:39.136Z,97910.78
2023-04-29T05:51:06.340Z,97909.56
2023-04-29T05:53:33.604Z,97915.41
2023-04-29T05:56:00.914Z,97918.59
2023-04-29T05:58:28.562Z,97910.66
2023-04-29T06:00:58.674Z,97907.34
2023-04-29T06:03:27.783Z,97904.28
2023-04-29T06:06:14.070Z,97904.47
2023-04-29T06:08:57.978Z,97898.25
2023-04-29T06:11:29.230Z,97905.75
2023-04-29T06:13:56.341Z,97903.56
2023-04-29T06:16:23.758Z,97906.75
2023-04-29T06:18:51.102Z,97899.19
2023-04-29T06:21:18.187Z,97914.38
2023-04-29T06:23:45.425Z,97914.66
2023-04-29T06:26:17.151Z,97916.03
2023-04-29T06:28:44.860Z,97912.31
2023-04-29T06:31:12.729Z,97914.25
2023-04-29T06:33:40.035Z,97916.41
2023-04-29T06:36:07.197Z,97910.03
2023-04-29T06:39:06.512Z,97911.66
2023-04-29T06:41:47.382Z,97907.81
2023-04-29T06:44:44.064Z,97907.81
2023-04-29T06:47:25.108Z,97916.25
2023-04-29T06:50:06.124Z,97908.63
2023-04-29T06:52:33.558Z,97915.34
2023-04-29T06:55:00.888Z,97906.13
2023-04-29T06:57:27.934Z,97913.22
2023-04-29T06:59:55.268Z,97905.06
2023-04-29T07:02:22.561Z,97899.22
2023-04-29T07:04:51.100Z,97900.25
2023-04-29T07:07:18.164Z,97910.13
2023-04-29T07:09:45.262Z,97906.72
2023-04-29T07:12:12.314Z,97904.47
2023-04-29T07:14:39.341Z,97915.09
2023-04-29T07:17:06.459Z,97913.56
2023-04-29T07:19:33.588Z,97903.16
2023-04-29T07:22:00.955Z,97887.69
2023-04-29T07:24:28.104Z,97909.59
2023-04-29T07:26:55.616Z,97913.41
2023-04-29T07:29:22.663Z,97911.53
2023-04-29T07:31:49.835Z,97897.75
2023-04-29T07:34:17.018Z,97907.09
2023-04-29T07:36:44.216Z,97912.28
2023-04-29T07:39:12.651Z,97915.44
2023-04-29T07:41:40.248Z,97914.88
2023-04-29T07:44:07.293Z,97912.75
2023-04-29T07:46:34.497Z,97912.28
2023-04-29T07:49:01.578Z,97907.72
2023-04-29T07:51:29.240Z,97903.66
2023-04-29T07:53:56.326Z,97906.78
2023-04-29T07:56:23.824Z,97901.63
2023-04-29T07:58:51.220Z,97898.63
2023-04-29T08:01:18.501Z,97903.94
2023-04-29T08:03:46.253Z,97891.84
2023-04-29T08:06:16.754Z,97894.41
2023-04-29T08:08:44.208Z,97881.31
2023-04-29T08:11:21.688Z,97909.72
2023-04-29T08:13:48.794Z,97896.25
2023-04-29T08:16:17.143Z,97902.00
2023-04-29T08:18:44.389Z,97888.97
2023-04-29T08:21:11.976Z,97885.16
2023-04-29T08:23:40.171Z,97894.16
2023-04-29T08:26:07.289Z,97885.41
2023-04-29T08:28:34.358Z,97890.50
2023-04-29T08:31:01.576Z,97884.94
2023-04-29T08:33:28.844Z,97876.81
2023-04-29T08:36:03.819Z,97880.50
2023-04-29T08:38:31.202Z,97871.38
2023-04-29T08:40:58.534Z,97876.34
2023-04-29T08:43:26.990Z,97872.50
2023-04-29T08:45:54.542Z,97876.19
2023-04-29T08:48:22.238Z,97878.19
2023-04-29T08:50:49.377Z,97870.50
2023-04-29T08:53:16.540Z,97872.50
2023-04-29T08:55:46.890Z,97872.59
2023-04-29T08:58:15.528Z,97871.56
2023-04-29T09:00:43.968Z,97871.31
2023-04-29T09:03:18.314Z,97861.19
2023-04-29T09:05:50.607Z,97861.66
2023-04-29T09:08:18.368Z,97860.19
2023-04-29T09:10:45.586Z,97865.97
2023-04-29T09:13:24.566Z,97852.13
2023-04-29T09:15:51.750Z,97856.44
2023-04-29T09:18:44.605Z,97859.13
2023-04-29T09:21:20.286Z,97842.91
2023-04-29T09:23:51.805Z,97852.03
2023-04-29T09:26:19.766Z,97841.34
2023-04-29T09:28:47.976Z,97832.88
2023-04-29T09:31:15.113Z,97834.09
2023-04-29T09:33:56.349Z,97838.38
2023-04-29T09:36:46.794Z,97835.06
2023-04-29T09:39:19.591Z,97821.56
2023-04-29T09:41:52.837Z,97814.63
2023-04-29T10:17:02.438Z,97789.91
2023-04-29T10:19:47.646Z,97791.50
2023-04-29T10:22:22.965Z,97786.50
2023-04-29T10:24:51.428Z,97784.59
2023-04-29T10:27:20.691Z,97788.66
2023-04-29T10:29:50.841Z,97776.81
2023-04-29T10:32:18.647Z,97769.03
2023-04-29T10:34:46.218Z,97777.88
2023-04-29T10:37:14.492Z,97778.63
2023-04-29T10:39:55.159Z,97761.88
2023-04-29T10:42:37.668Z,97770.66
2023-04-29T10:45:31.898Z,97774.63
2023-04-29T10:48:08.893Z,97776.63
2023-04-29T10:50:49.854Z,97770.16
2023-04-29T10:53:22.156Z,97768.97
2023-04-29T10:56:05.168Z,97773.38
2023-04-29T10:58:40.791Z,97761.47
2023-04-29T11:01:11.340Z,97757.28
2023-04-29T11:03:55.002Z,97757.00
2023-04-29T11:06:35.735Z,97753.78
2023-04-29T11:09:14.786Z,97748.69
2023-04-29T11:12:06.056Z,97758.78
2023-04-29T11:14:33.313Z,97748.00
2023-04-29T11:17:03.011Z,97743.91
2023-04-29T11:19:40.790Z,97746.38
2023-04-29T11:22:18.479Z,97742.50
2023-04-29T11:25:07.402Z,97743.00
2023-04-29T11:27:42.797Z,97738.59
2023-04-29T11:30:10.277Z,97732.03
2023-04-29T11:32:43.170Z,97731.31
2023-04-29T11:35:12.478Z,97733.09
2023-04-29T11:37:40.662Z,97735.03
2023-04-29T11:40:09.045Z,97733.78
2023-04-29T11:42:40.996Z,97732.75
2023-04-29T11:45:09.146Z,97733.06
2023-04-29T11:47:36.189Z,97733.66
2023-04-29T11:50:08.903Z,97718.81
2023-04-29T11:52:38.356Z,97721.00
2023-04-29T11:55:06.520Z,97714.78
2023-04-29T11:57:33.606Z,97707.00
2023-04-29T12:00:01.368Z,97707.25
2023-04-29T12:02:35.340Z,97692.13
2023-04-29T12:05:09.384Z,97699.63
2023-04-29T12:07:39.239Z,97696.28
2023-04-29T12:10:11.283Z,97691.47
2023-04-29T12:12:41.564Z,97697.56
2023-04-29T12:15:10.501Z,97690.69
2023-04-29T12:17:38.833Z,97703.81
2023-04-29T12:20:08.381Z,97696.06
2023-04-29T12:22:35.645Z,97687.56
2023-04-29T12:25:07.534Z,97690.50
2023-04-29T12:27:36.461Z,97683.06
2023-04-29T12:30:08.378Z,97684.94
2023-04-29T12:32:37.016Z,97689.41
2023-04-29T12:35:04.527Z,97681.53
2023-04-29T12:37:31.678Z,97680.09
2023-04-29T12:39:58.803Z,97673.25
2023-04-29T12:42:33.377Z,97686.41
2023-04-29T12:45:00.610Z,97666.53
2023-04-29T12:47:37.366Z,97678.44
2023-04-29T12:50:07.463Z,97675.06
2023-04-29T12:52:36.580Z,97675.06
2023-04-29T12:55:05.026Z,97676.44
2023-04-29T12:57:32.190Z,97673.25
2023-04-29T12:59:59.482Z,97673.16
2023-04-29T13:02:26.702Z,97664.75
2023-04-29T13:04:54.107Z,97666.59
2023-04-29T13:07:21.491Z,97667.81
2023-04-29T13:09:48.504Z,97662.13
2023-04-29T13:12:15.500Z,97665.38
2023-04-29T13:14:42.482Z,97666.41
2023-04-29T13:17:10.997Z,97657.34
2023-04-29T13:19:50.628Z,97663.19
2023-04-29T13:22:19.136Z,97662.19
2023-04-29T13:24:46.984Z,97663.88
2023-04-29T13:27:14.252Z,97669.03
2023-04-29T13:29:41.366Z,97661.31
2023-04-29T13:32:09.134Z,97654.09
2023-04-29T13:34:36.332Z,97653.19
2023-04-29T13:37:03.742Z,97661.63
2023-04-29T13:39:31.626Z,97665.47
2023-04-29T13:41:59.723Z,97665.22
2023-04-29T13:44:33.270Z,97662.56
2023-04-29T13:47:06.921Z,97659.19
2023-04-29T13:50:10.042Z,97656.06
2023-04-29T13:55:14.855Z,97645.50
2023-04-29T14:00:25.289Z,97656.66
2023-04-29T14:05:26.718Z,97654.59
2023-04-29T14:07:53.836Z,97651.00
2023-04-29T14:10:21.197Z,97649.00
2023-04-29T14:12:48.891Z,97652.78
2023-04-29T14:15:16.486Z,97639.75
2023-04-29T14:17:43.615Z,97642.84
2023-04-29T14:20:10.953Z,97636.69
2023-04-29T14:22:37.972Z,97640.03
2023-04-29T14:25:05.423Z,97639.41
2023-04-29T14:27:32.416Z,97639.78
2023-04-29T14:29:59.363Z,97636.03
2023-04-29T14:32:26.324Z,97639.81
2023-04-29T14:34:53.606Z,97639.94
2023-04-29T14:37:20.780Z,97639.84
2023-04-29T14:39:47.840Z,97643.28
2023-04-29T14:42:15.227Z,97638.72
2023-04-29T14:44:42.249Z,97636.78
2023-04-29T14:47:09.577Z,97630.47
2023-04-29T14:49:36.627Z,97633.44
2023-04-29T14:52:04.004Z,97634.09
2023-04-29T14:54:31.307Z,97631.38
2023-04-29T14:56:58.332Z,97636.59
2023-04-29T14:59:26.068Z,97625.69
2023-04-29T15:01:53.181Z,97624.72
2023-04-29T15:04:20.274Z,97631.94
2023-04-29T15:06:47.360Z,97627.63
2023-04-29T15:09:14.550Z,97630.50
2023-04-29T15:11:41.605Z,97623.25
2023-04-29T15:14:08.727Z,97622.97
2023-04-29T15:16:36.453Z,97630.25
2023-04-29T15:19:03.555Z,97627.25
2023-04-29T15:21:30.560Z,97633.06
2023-04-29T15:23:57.553Z,97629.72
2023-04-29T15:26:24.788Z,97629.44
2023-04-29T15:28:51.835Z,97628.09
2023-04-29T15:31:18.964Z,97625.84
2023-04-29T15:33:46.282Z,97624.75
2023-04-29T15:36:13.478Z,97630.31
2023-04-29T15:38:40.529Z,97633.44
2023-04-29T15:41:07.802Z,97634.44
2023-04-29T15:43:34.958Z,97629.91
2023-04-29T15:46:02.072Z,97625.16
2023-04-29T15:48:29.174Z,97634.25
2023-04-29T15:50:56.312Z,97640.25
2023-04-29T15:53:23.442Z,97630.84
2023-04-29T15:55:50.777Z,97636.63
2023-04-29T15:58:17.867Z,97635.66
2023-04-29T16:00:44.852Z,97635.41
2023-04-29T16:03:11.891Z,97636.63
2023-04-29T16:05:38.938Z,97638.34
2023-04-29T16:08:06.818Z,97633.56
2023-04-29T16:10:33.912Z,97634.72
2023-04-29T16:13:01.200Z,97635.53
2023-04-29T16:15:29.477Z,97636.94
2023-04-29T16:17:56.515Z,97634.66
2023-04-29T16:20:23.689Z,97632.41
2023-04-29T16:22:50.708Z,97633.72
2023-04-29T16:25:18.012Z,97642.94
2023-04-29T16:27:45.636Z,97638.50
2023-04-29T16:30:12.892Z,97643.13
2023-04-29T16:32:41.767Z,97646.81
2023-04-29T16:35:12.830Z,97644.84
2023-04-29T16:37:40.070Z,97645.75
2023-04-29T16:40:07.597Z,97643.16
2023-04-29T16:42:34.614Z,97647.06
2023-04-29T16:45:01.592Z,97646.31
2023-04-29T16:47:28.581Z,97656.03
2023-04-29T16:49:56.225Z,97650.63
2023-04-29T16:52:24.260Z,97652.44
2023-04-29T16:54:51.243Z,97651.47
2023-04-29T16:57:18.321Z,97659.47
2023-04-29T16:59:45.483Z,97652.19
2023-04-29T17:02:12.558Z,97654.44
2023-04-29T17:04:40.250Z,97651.00
2023-04-29T17:07:09.472Z,97656.16
2023-04-29T17:09:36.594Z,97665.53
2023-04-29T17:12:04.248Z,97658.03
2023-04-29T17:14:31.415Z,97651.72
2023-04-29T17:16:58.492Z,97663.25
2023-04-29T17:19:25.628Z,97656.91
2023-04-29T17:21:53.388Z,97660.88
2023-04-29T17:24:20.391Z,97655.25
2023-04-29T17:26:47.389Z,97663.66
2023-04-29T17:29:14.478Z,97658.75
2023-04-29T17:31:54.380Z,97667.34
2023-04-29T17:34:25.702Z,97668.53
2023-04-29T17:36:53.897Z,97663.28
2023-04-29T17:39:21.229Z,97673.09
2023-04-29T17:41:48.198Z,97669.28
2023-04-29T17:44:15.128Z,97671.72
2023-04-29T17:46:42.849Z,97665.28
2023-04-29T17:49:09.882Z,97668.38
2023-04-29T17:51:36.843Z,97674.09
2023-04-29T17:54:07.294Z,97680.53
2023-04-29T17:56:35.330Z,97674.50
2023-04-29T17:59:05.329Z,97683.19
2023-04-29T18:01:33.200Z,97681.78
2023-04-29T18:04:00.726Z,97685.22
2023-04-29T18:06:31.927Z,97684.78
2023-04-29T18:08:59.087Z,97681.22
2023-04-29T18:11:26.269Z,97682.03
2023-04-29T18:13:54.437Z,97687.97
2023-04-29T18:16:21.733Z,97685.72
2023-04-29T18:18:52.086Z,97691.03
2023-04-29T18:21:22.271Z,97692.13
2023-04-29T18:23:49.424Z,97695.56
2023-04-29T18:26:16.515Z,97688.41
2023-04-29T18:28:45.685Z,97691.28
2023-04-29T18:31:16.941Z,97692.13
2023-04-29T18:33:44.821Z,97685.09
2023-04-29T18:36:14.295Z,97686.19
2023-04-29T18:38:41.639Z,97692.09
2023-04-29T18:41:08.751Z,97693.16
2023-04-29T18:43:35.901Z,97691.50
2023-04-29T18:46:03.334Z,97693.81
2023-04-29T18:48:31.165Z,97699.28
2023-04-29T18:51:00.492Z,97701.69
2023-04-29T18:53:27.586Z,97696.09
2023-04-29T18:55:54.743Z,97692.50
2023-04-29T18:58:22.187Z,97692.22
2023-04-29T19:00:49.245Z,97688.63
2023-04-29T19:03:16.633Z,97693.13
2023-04-29T19:05:44.538Z,97694.31
2023-04-29T19:08:11.596Z,97690.97
2023-04-29T19:10:38.614Z,97700.16
2023-04-29T19:13:05.700Z,97689.78
2023-04-29T19:15:32.826Z,97690.22
2023-04-29T19:17:59.956Z,97683.88
2023-04-29T19:20:27.449Z,97686.16
2023-04-29T19:22:54.551Z,97675.53
2023-04-29T19:25:21.893Z,97681.66
2023-04-29T19:27:49.177Z,97680.06
2023-04-29T19:30:16.714Z,97674.72
2023-04-29T19:32:45.925Z,97679.50
2023-04-29T19:35:13.100Z,97680.19
2023-04-29T19:37:40.670Z,97681.38
2023-04-29T19:40:10.748Z,97683.28
2023-04-29T19:42:38.118Z,97681.16
2023-04-29T19:45:07.912Z,97671.41
2023-04-29T19:47:35.320Z,97674.06
2023-04-29T19:50:02.937Z,97666.16
2023-04-29T19:52:30.073Z,97664.94
2023-04-29T19:54:57.275Z,97667.03
2023-04-29T19:57:24.387Z,97661.50
2023-04-29T19:59:51.546Z,97662.38
2023-04-29T20:02:19.228Z,97654.94
2023-04-29T20:04:46.348Z,97654.84
2023-04-29T20:07:13.306Z,97657.19
2023-04-29T20:09:40.390Z,97649.50
2023-04-29T20:12:07.472Z,97648.22
2023-04-29T20:14:34.486Z,97654.22
2023-04-29T20:17:01.564Z,97651.41
2023-04-29T20:19:28.772Z,97645.84
2023-04-29T20:21:55.776Z,97641.16
2023-04-29T20:24:22.847Z,97645.25
2023-04-29T20:26:49.899Z,97655.22
2023-04-29T20:29:16.863Z,97641.72
2023-04-29T20:31:44.119Z,97644.69
2023-04-29T20:34:11.319Z,97642.88
2023-04-29T20:36:38.647Z,97638.94
2023-04-29T20:39:06.988Z,97642.94
2023-04-29T20:41:34.024Z,97641.06
2023-04-29T20:44:01.163Z,97640.06
2023-04-29T20:46:28.222Z,97630.78
2023-04-29T20:48:55.192Z,97641.00
2023-04-29T20:51:22.246Z,97639.06
2023-04-29T20:53:49.657Z,97645.59
2023-04-29T20:56:16.741Z,97647.03
2023-04-29T20:58:43.751Z,97634.19
2023-04-29T21:01:10.828Z,97636.13
2023-04-29T21:03:37.869Z,97638.56
2023-04-29T21:06:05.123Z,97633.22
2023-04-29T21:08:32.117Z,97627.31
2023-04-29T21:10:59.094Z,97626.63
2023-04-29T21:13:26.182Z,97631.59
2023-04-29T21:15:53.242Z,97625.97
2023-04-29T21:18:20.315Z,97629.94
2023-04-29T21:20:47.428Z,97626.88
2023-04-29T21:23:14.538Z,97619.34
2023-04-29T21:25:41.553Z,97620.97
2023-04-29T21:28:08.557Z,97627.59
2023-04-29T21:30:35.644Z,97623.19
2023-04-29T21:33:03.462Z,97619.97
2023-04-29T21:35:30.848Z,97624.00
2023-04-29T21:37:58.064Z,97625.81
2023-04-29T21:40:26.692Z,97611.78
2023-04-29T21:42:55.465Z,97615.06
2023-04-29T21:45:22.730Z,97610.94
2023-04-29T21:47:50.098Z,97616.44
2023-04-29T21:50:17.212Z,97617.88
2023-04-29T21:52:44.325Z,97621.72
2023-04-29T21:55:11.272Z,97606.69
2023-04-29T21:57:44.183Z,97610.03
2023-04-29T22:00:42.183Z,97612.16
2023-04-29T22:03:10.008Z,97601.78
2023-04-29T22:05:37.414Z,97606.47
2023-04-29T22:08:07.513Z,97602.91
2023-04-29T22:10:34.911Z,97601.03
2023-04-29T22:13:01.984Z,97595.69
2023-04-29T22:15:29.635Z,97590.16
2023-04-29T22:17:57.880Z,97584.47
2023-04-29T22:20:25.831Z,97588.38
2023-04-29T22:22:53.091Z,97586.94
2023-04-29T22:25:21.981Z,97587.00
2023-04-29T22:27:50.230Z,97583.78
2023-04-29T22:30:20.921Z,97574.38
2023-04-29T22:32:48.038Z,97576.50
2023-04-29T22:35:15.987Z,97578.06
2023-04-29T22:37:43.027Z,97572.06
2023-04-29T22:40:11.042Z,97569.09
2023-04-29T22:42:39.574Z,97566.94
2023-04-29T22:45:07.197Z,97566.25
2023-04-29T22:47:34.203Z,97565.44
2023-04-29T22:50:01.274Z,97561.91
2023-04-29T22:52:28.346Z,97560.56
2023-04-29T22:54:55.283Z,97564.31
2023-04-29T22:57:22.255Z,97553.13
2023-04-29T22:59:53.158Z,97556.22
2023-04-29T23:02:20.809Z,97550.03
2023-04-29T23:04:48.223Z,97543.72
2023-04-29T23:07:15.227Z,97547.34
2023-04-29T23:09:42.247Z,97545.84
2023-04-29T23:12:09.232Z,97543.50
2023-04-29T23:14:36.314Z,97531.00
2023-04-29T23:17:03.390Z,97523.75
2023-04-29T23:19:30.395Z,97529.59
2023-04-29T23:21:57.372Z,97525.88
2023-04-29T23:24:24.500Z,97527.06
2023-04-29T23:26:51.591Z,97528.91
2023-04-29T23:29:18.727Z,97528.63
2023-04-29T23:31:45.915Z,97529.09
2023-04-29T23:34:13.339Z,97531.63
2023-04-29T23:36:40.638Z,97532.78
2023-04-29T23:39:07.584Z,97530.31
2023-04-29T23:41:34.737Z,97534.56
2023-04-29T23:44:02.546Z,97525.47
2023-04-29T23:46:30.954Z,97522.19
2023-04-29T23:48:57.979Z,97525.91
2023-04-29T23:51:26.424Z,97529.84
2023-04-29T23:53:53.417Z,97522.97
2023-04-29T23:56:20.416Z,97518.00
2023-04-29T23:58:47.430Z,97515.59
